createdAt,value
2022-08-31T00:00:40.338Z,83.07
2022-08-31T00:01:40.362Z,83.98
2022-08-31T00:02:40.323Z,83.78
2022-08-31T00:03:40.318Z,83.98
2022-08-31T00:04:40.342Z,84.29
2022-08-31T00:05:40.296Z,83.88
2022-08-31T00:06:40.321Z,84.09
2022-08-31T00:07:40.455Z,84.09
2022-08-31T00:08:40.272Z,83.68
2022-08-31T00:09:40.267Z,83.68
2022-08-31T00:10:40.258Z,83.98
2022-08-31T00:11:40.273Z,84.43
2022-08-31T00:12:40.256Z,84.73
2022-08-31T00:13:40.227Z,84.33
2022-08-31T00:14:40.222Z,84.83
2022-08-31T00:15:40.219Z,84.73
2022-08-31T00:16:40.268Z,85.34
2022-08-31T00:17:40.211Z,85.88
2022-08-31T00:18:40.194Z,85.99
2022-08-31T00:19:40.195Z,85.68
2022-08-31T00:20:40.180Z,85.78
2022-08-31T00:21:40.197Z,86.08
2022-08-31T00:22:40.175Z,85.52
2022-08-31T00:23:40.158Z,86.83
2022-08-31T00:24:40.154Z,86.79
2022-08-31T00:25:40.142Z,86.79
2022-08-31T00:26:40.158Z,86.83
2022-08-31T00:27:40.132Z,85.93
2022-08-31T00:28:40.117Z,86.22
2022-08-31T00:29:40.109Z,85.93
2022-08-31T00:30:40.104Z,85.72
2022-08-31T00:31:40.189Z,85.93
2022-08-31T00:32:40.094Z,85.82
2022-08-31T00:33:40.077Z,86.39
2022-08-31T00:34:40.077Z,86.33
2022-08-31T00:35:40.067Z,85.93
2022-08-31T00:36:40.085Z,85.62
2022-08-31T00:37:40.050Z,85.88
2022-08-31T00:38:40.041Z,84.37
2022-08-31T00:39:40.052Z,84.83
2022-08-31T00:40:44.463Z,84.03
2022-08-31T00:41:41.050Z,83.07
2022-08-31T00:42:40.006Z,83.68
2022-08-31T00:43:40.015Z,83.92
2022-08-31T00:44:39.995Z,83.01
2022-08-31T00:45:40.026Z,82.98
2022-08-31T00:46:39.975Z,82.37
2022-08-31T00:47:39.992Z,82.27
2022-08-31T00:48:39.965Z,82.07
2022-08-31T00:49:39.953Z,81.87
2022-08-31T00:50:39.939Z,81.96
2022-08-31T00:51:39.933Z,82.27
2022-08-31T00:52:39.954Z,82.57
2022-08-31T00:53:39.916Z,82.98
2022-08-31T00:54:39.909Z,82.57
2022-08-31T00:55:39.904Z,83.18
2022-08-31T00:56:39.895Z,83.07
2022-08-31T00:57:39.918Z,82.98
2022-08-31T00:58:39.885Z,82.67
2022-08-31T00:59:39.869Z,82.37
2022-08-31T01:00:39.889Z,82.67
2022-08-31T01:01:39.855Z,82.67
2022-08-31T01:02:39.923Z,82.37
2022-08-31T01:03:39.844Z,82.17
2022-08-31T01:04:39.846Z,81.67
2022-08-31T01:05:39.834Z,81.93
2022-08-31T01:06:39.823Z,81.32
2022-08-31T01:07:39.851Z,82.03
2022-08-31T01:08:39.805Z,82.07
2022-08-31T01:09:39.800Z,81.76
2022-08-31T01:10:40.790Z,82.37
2022-08-31T01:11:39.773Z,81.73
2022-08-31T01:12:39.801Z,82.07
2022-08-31T01:13:39.765Z,81.82
2022-08-31T01:14:39.759Z,81.73
2022-08-31T01:15:39.751Z,81.62
2022-08-31T01:16:39.782Z,81.76
2022-08-31T01:17:39.758Z,82.33
2022-08-31T01:18:39.741Z,82.33
2022-08-31T01:19:39.719Z,82.23
2022-08-31T01:20:45.751Z,82.17
2022-08-31T01:21:40.700Z,82.37
2022-08-31T01:22:39.723Z,82.37
2022-08-31T01:23:39.685Z,82.47
2022-08-31T01:24:39.680Z,82.47
2022-08-31T01:25:39.671Z,81.96
2022-08-31T01:26:39.668Z,82.57
2022-08-31T01:27:39.681Z,82.37
2022-08-31T01:28:39.652Z,82.47
2022-08-31T01:29:39.642Z,82.37
2022-08-31T01:30:39.641Z,82.27
2022-08-31T01:31:39.686Z,82.67
2022-08-31T01:32:39.644Z,82.67
2022-08-31T01:33:39.609Z,82.47
2022-08-31T01:34:39.597Z,82.27
2022-08-31T01:35:39.596Z,82.67
2022-08-31T01:36:39.598Z,82.47
2022-08-31T01:37:39.609Z,82.98
2022-08-31T01:38:39.577Z,83.12
2022-08-31T01:39:39.561Z,83.12
2022-08-31T01:40:39.597Z,83.22
2022-08-31T01:41:39.547Z,84.03
2022-08-31T01:42:39.591Z,84.17
2022-08-31T01:43:39.536Z,84.17
2022-08-31T01:44:39.530Z,84.03
2022-08-31T01:45:39.521Z,84.06
2022-08-31T01:46:39.543Z,84.33
2022-08-31T01:47:39.534Z,84.57
2022-08-31T01:48:41.509Z,84.03
2022-08-31T01:49:39.494Z,84.03
2022-08-31T01:50:39.483Z,83.92
2022-08-31T01:51:39.476Z,84.03
2022-08-31T01:52:39.490Z,84.03
2022-08-31T01:53:39.455Z,84.23
2022-08-31T01:54:39.455Z,84.43
2022-08-31T01:55:39.447Z,84.87
2022-08-31T01:56:39.433Z,84.87
2022-08-31T01:57:39.456Z,84.27
2022-08-31T01:58:39.421Z,84.97
2022-08-31T01:59:39.404Z,85.28
2022-08-31T02:00:39.480Z,84.77
2022-08-31T02:01:39.517Z,84.87
2022-08-31T02:02:40.456Z,84.67
2022-08-31T02:03:39.375Z,84.87
2022-08-31T02:04:39.369Z,84.77
2022-08-31T02:05:39.358Z,85.28
2022-08-31T02:06:39.357Z,85.31
2022-08-31T02:07:39.384Z,85.93
2022-08-31T02:08:39.341Z,85.93
2022-08-31T02:09:39.332Z,85.93
2022-08-31T02:10:39.328Z,86.02
2022-08-31T02:11:39.316Z,86.02
2022-08-31T02:12:39.331Z,87.04
2022-08-31T02:13:39.312Z,86.63
2022-08-31T02:14:39.293Z,86.33
2022-08-31T02:15:39.286Z,86.33
2022-08-31T02:16:39.358Z,87.68
2022-08-31T02:17:39.297Z,87.08
2022-08-31T02:18:39.257Z,87.08
2022-08-31T02:19:39.247Z,87.08
2022-08-31T02:20:39.248Z,86.98
2022-08-31T02:21:39.241Z,87.24
2022-08-31T02:22:39.259Z,87.38
2022-08-31T02:23:39.219Z,87.58
2022-08-31T02:24:39.221Z,87.58
2022-08-31T02:25:39.214Z,86.87
2022-08-31T02:26:39.206Z,87.48
2022-08-31T02:27:39.192Z,87.38
2022-08-31T02:28:39.204Z,87.38
2022-08-31T02:29:39.175Z,86.87
2022-08-31T02:30:39.170Z,87.28
2022-08-31T02:31:39.230Z,87.79
2022-08-31T02:32:39.155Z,87.88
2022-08-31T02:33:39.174Z,87.99
2022-08-31T02:34:39.141Z,87.38
2022-08-31T02:35:39.164Z,88.09
2022-08-31T02:36:39.124Z,88.59
2022-08-31T02:37:39.126Z,88.39
2022-08-31T02:38:39.142Z,87.99
2022-08-31T02:39:39.099Z,88.09
2022-08-31T02:40:39.135Z,88.23
2022-08-31T02:41:39.079Z,88.43
2022-08-31T02:42:52.988Z,88.29
2022-08-31T02:43:40.093Z,88.33
2022-08-31T02:44:39.059Z,88.59
2022-08-31T02:45:39.046Z,87.99
2022-08-31T02:46:39.111Z,87.99
2022-08-31T02:47:39.029Z,88.19
2022-08-31T02:48:39.059Z,88.23
2022-08-31T02:49:39.009Z,88.49
2022-08-31T02:50:39.004Z,88.39
2022-08-31T02:51:39.005Z,88.49
2022-08-31T02:52:38.991Z,88.33
2022-08-31T02:53:39.009Z,88.39
2022-08-31T02:54:38.987Z,88.23
2022-08-31T02:55:38.967Z,88.74
2022-08-31T02:56:38.957Z,88.59
2022-08-31T02:57:38.955Z,88.70
2022-08-31T02:58:38.969Z,88.94
2022-08-31T02:59:38.936Z,89.34
2022-08-31T03:00:38.935Z,88.64
2022-08-31T03:01:39.020Z,88.53
2022-08-31T03:02:38.992Z,89.50
2022-08-31T03:03:38.938Z,89.00
2022-08-31T03:04:38.909Z,89.45
2022-08-31T03:05:38.891Z,89.50
2022-08-31T03:06:38.879Z,89.04
2022-08-31T03:07:38.874Z,89.24
2022-08-31T03:08:38.896Z,89.34
2022-08-31T03:09:38.862Z,89.00
2022-08-31T03:10:38.851Z,89.34
2022-08-31T03:11:38.845Z,89.24
2022-08-31T03:12:38.835Z,89.14
2022-08-31T03:13:38.852Z,88.94
2022-08-31T03:14:38.826Z,89.24
2022-08-31T03:15:38.844Z,89.99
2022-08-31T03:16:38.803Z,89.45
2022-08-31T03:17:38.794Z,89.34
2022-08-31T03:18:38.810Z,89.45
2022-08-31T03:19:38.773Z,89.34
2022-08-31T03:20:38.766Z,89.54
2022-08-31T03:21:38.753Z,89.54
2022-08-31T03:22:39.752Z,89.54
2022-08-31T03:23:38.771Z,89.75
2022-08-31T03:24:38.895Z,89.75
2022-08-31T03:25:39.697Z,90.05
2022-08-31T03:26:38.724Z,90.16
2022-08-31T03:27:38.718Z,90.20
2022-08-31T03:28:38.730Z,90.16
2022-08-31T03:29:38.699Z,90.16
2022-08-31T03:30:38.692Z,90.30
2022-08-31T03:31:38.724Z,90.09
2022-08-31T03:32:38.679Z,89.85
2022-08-31T03:33:38.693Z,90.25
2022-08-31T03:34:38.662Z,90.09
2022-08-31T03:35:38.660Z,90.56
2022-08-31T03:36:38.646Z,90.09
2022-08-31T03:37:38.634Z,90.09
2022-08-31T03:38:38.654Z,90.40
2022-08-31T03:39:38.627Z,90.70
2022-08-31T03:40:38.662Z,91.51
2022-08-31T03:41:38.602Z,91.11
2022-08-31T03:42:38.587Z,91.31
2022-08-31T03:43:39.611Z,91.51
2022-08-31T03:44:38.586Z,91.20
2022-08-31T03:45:38.577Z,91.31
2022-08-31T03:46:38.586Z,91.66
2022-08-31T03:47:44.723Z,91.61
2022-08-31T03:48:39.585Z,91.86
2022-08-31T03:49:38.550Z,91.75
2022-08-31T03:50:38.541Z,91.82
2022-08-31T03:51:38.529Z,91.75
2022-08-31T03:52:38.518Z,92.02
2022-08-31T03:53:38.532Z,91.96
2022-08-31T03:54:38.497Z,92.06
2022-08-31T03:55:38.500Z,92.36
2022-08-31T03:56:38.484Z,92.67
2022-08-31T03:57:38.474Z,92.06
2022-08-31T03:58:38.506Z,92.57
2022-08-31T03:59:38.461Z,92.57
2022-08-31T04:00:38.452Z,92.06
2022-08-31T04:01:38.504Z,92.26
2022-08-31T04:02:38.472Z,92.57
2022-08-31T04:03:38.460Z,92.47
2022-08-31T04:04:38.425Z,92.87
2022-08-31T04:05:38.411Z,93.07
2022-08-31T04:06:38.405Z,93.07
2022-08-31T04:07:42.713Z,92.26
2022-08-31T04:08:38.415Z,92.47
2022-08-31T04:09:38.381Z,92.06
2022-08-31T04:10:38.369Z,92.26
2022-08-31T04:11:45.301Z,92.57
2022-08-31T04:12:39.354Z,92.47
2022-08-31T04:13:38.377Z,92.47
2022-08-31T04:14:38.342Z,92.77
2022-08-31T04:15:38.402Z,92.47
2022-08-31T04:16:38.325Z,92.57
2022-08-31T04:17:38.312Z,92.97
2022-08-31T04:18:38.341Z,92.87
2022-08-31T04:19:38.302Z,92.97
2022-08-31T04:20:38.294Z,92.26
2022-08-31T04:21:38.276Z,93.27
2022-08-31T04:22:38.267Z,93.48
2022-08-31T04:23:39.309Z,93.58
2022-08-31T04:24:38.263Z,93.48
2022-08-31T04:25:38.249Z,93.27
2022-08-31T04:26:38.246Z,93.27
2022-08-31T04:27:38.259Z,93.27
2022-08-31T04:28:38.226Z,93.48
2022-08-31T04:29:38.250Z,92.47
2022-08-31T04:30:38.244Z,92.77
2022-08-31T04:31:38.207Z,92.77
2022-08-31T04:32:38.197Z,92.77
2022-08-31T04:33:38.192Z,93.22
2022-08-31T04:34:38.206Z,93.38
2022-08-31T04:35:38.165Z,93.02
2022-08-31T04:36:39.175Z,93.52
2022-08-31T04:37:38.161Z,93.48
2022-08-31T04:38:38.157Z,93.27
2022-08-31T04:39:49.519Z,93.62
2022-08-31T04:40:39.262Z,93.58
2022-08-31T04:41:38.125Z,93.62
2022-08-31T04:42:38.123Z,93.58
2022-08-31T04:43:38.112Z,93.62
2022-08-31T04:44:38.128Z,93.42
2022-08-31T04:45:38.123Z,93.62
2022-08-31T04:46:38.083Z,93.58
2022-08-31T04:47:38.083Z,93.27
2022-08-31T04:48:38.072Z,93.48
2022-08-31T04:49:38.090Z,94.13
2022-08-31T04:50:42.357Z,93.88
2022-08-31T04:51:39.040Z,94.43
2022-08-31T04:52:38.035Z,94.43
2022-08-31T04:53:38.059Z,94.03
2022-08-31T04:54:38.020Z,94.13
2022-08-31T04:55:38.014Z,94.34
2022-08-31T04:56:38.008Z,93.73
2022-08-31T04:57:37.990Z,94.03
2022-08-31T04:58:38.012Z,94.23
2022-08-31T04:59:37.982Z,94.09
2022-08-31T05:00:37.977Z,93.88
2022-08-31T05:01:42.857Z,94.43
2022-08-31T05:02:39.051Z,94.39
2022-08-31T05:03:37.970Z,93.88
2022-08-31T05:04:37.933Z,93.68
2022-08-31T05:05:37.930Z,93.23
2022-08-31T05:06:37.918Z,92.83
2022-08-31T05:07:37.911Z,93.43
2022-08-31T05:08:37.930Z,93.54
2022-08-31T05:09:37.897Z,92.22
2022-08-31T05:10:37.898Z,93.07
2022-08-31T05:11:37.880Z,93.27
2022-08-31T05:12:37.869Z,93.68
2022-08-31T05:13:37.895Z,93.38
2022-08-31T05:14:37.860Z,93.38
2022-08-31T05:15:37.865Z,93.38
2022-08-31T05:16:37.835Z,93.58
2022-08-31T05:17:38.834Z,93.54
2022-08-31T05:18:37.828Z,93.78
2022-08-31T05:19:40.991Z,93.54
2022-08-31T05:20:38.812Z,93.33
2022-08-31T05:21:37.804Z,93.88
2022-08-31T05:22:37.799Z,93.33
2022-08-31T05:23:37.782Z,93.03
2022-08-31T05:24:37.806Z,93.23
2022-08-31T05:25:37.768Z,92.72
2022-08-31T05:26:38.057Z,93.03
2022-08-31T05:27:37.754Z,92.72
2022-08-31T05:28:37.750Z,92.83
2022-08-31T05:29:37.766Z,93.43
2022-08-31T05:30:37.787Z,93.43
2022-08-31T05:31:37.727Z,92.38
2022-08-31T05:32:37.758Z,92.58
2022-08-31T05:33:37.708Z,92.84
2022-08-31T05:34:37.734Z,92.18
2022-08-31T05:35:37.694Z,92.13
2022-08-31T05:36:37.689Z,92.24
2022-08-31T05:37:37.674Z,92.03
2022-08-31T05:38:37.664Z,91.83
2022-08-31T05:39:37.688Z,91.89
2022-08-31T05:40:37.696Z,91.28
2022-08-31T05:41:37.642Z,91.32
2022-08-31T05:42:37.634Z,91.83
2022-08-31T05:43:37.620Z,91.58
2022-08-31T05:44:38.652Z,91.63
2022-08-31T05:45:37.613Z,91.28
2022-08-31T05:46:37.663Z,91.08
2022-08-31T05:47:37.590Z,91.28
2022-08-31T05:48:37.597Z,90.88
2022-08-31T05:49:37.605Z,91.49
2022-08-31T05:50:37.571Z,91.49
2022-08-31T05:51:38.493Z,91.49
2022-08-31T05:52:38.558Z,91.22
2022-08-31T05:53:37.543Z,91.73
2022-08-31T05:54:37.565Z,91.63
2022-08-31T05:55:37.532Z,91.63
2022-08-31T05:56:37.524Z,91.83
2022-08-31T05:57:37.518Z,92.03
2022-08-31T05:58:37.509Z,92.13
2022-08-31T05:59:37.526Z,91.78
2022-08-31T06:00:37.494Z,91.73
2022-08-31T06:01:37.522Z,92.13
2022-08-31T06:02:37.479Z,92.13
2022-08-31T06:03:37.476Z,91.78
2022-08-31T06:04:37.488Z,92.44
2022-08-31T06:05:37.500Z,92.49
2022-08-31T06:06:38.447Z,91.93
2022-08-31T06:07:37.443Z,92.24
2022-08-31T06:08:37.437Z,92.24
2022-08-31T06:09:37.451Z,92.13
2022-08-31T06:10:37.427Z,92.09
2022-08-31T06:11:37.408Z,91.08
2022-08-31T06:12:37.404Z,91.49
2022-08-31T06:13:37.394Z,91.28
2022-08-31T06:14:38.794Z,91.18
2022-08-31T06:15:42.201Z,91.74
2022-08-31T06:16:38.435Z,91.08
2022-08-31T06:17:37.365Z,91.49
2022-08-31T06:18:37.352Z,91.28
2022-08-31T06:19:37.381Z,91.24
2022-08-31T06:20:37.344Z,91.14
2022-08-31T06:21:37.327Z,91.24
2022-08-31T06:22:37.331Z,91.34
2022-08-31T06:23:37.341Z,91.34
2022-08-31T06:24:37.309Z,91.14
2022-08-31T06:25:37.332Z,90.99
2022-08-31T06:26:37.297Z,90.99
2022-08-31T06:27:37.284Z,90.28
2022-08-31T06:28:37.278Z,90.99
2022-08-31T06:29:37.307Z,90.19
2022-08-31T06:30:47.802Z,90.39
2022-08-31T06:31:38.275Z,90.39
2022-08-31T06:32:37.241Z,91.50
2022-08-31T06:33:37.234Z,89.94
2022-08-31T06:34:37.227Z,90.04
2022-08-31T06:35:37.244Z,90.14
2022-08-31T06:36:37.214Z,90.49
2022-08-31T06:37:37.210Z,89.68
2022-08-31T06:38:37.194Z,89.74
2022-08-31T06:39:37.191Z,89.78
2022-08-31T06:40:37.310Z,90.28
2022-08-31T06:41:37.177Z,89.98
2022-08-31T06:42:37.160Z,89.42
2022-08-31T06:43:37.160Z,89.98
2022-08-31T06:44:37.148Z,91.25
2022-08-31T06:45:37.163Z,89.94
2022-08-31T06:46:37.197Z,90.04
2022-08-31T06:47:37.126Z,89.68
2022-08-31T06:48:37.122Z,89.54
2022-08-31T06:49:37.104Z,89.07
2022-08-31T06:50:37.125Z,89.23
2022-08-31T06:51:37.101Z,89.68
2022-08-31T06:52:39.094Z,89.94
2022-08-31T06:53:38.074Z,89.94
2022-08-31T06:54:37.062Z,89.98
2022-08-31T06:55:37.089Z,89.64
2022-08-31T06:56:37.053Z,88.93
2022-08-31T06:57:37.046Z,89.54
2022-08-31T06:58:37.035Z,89.84
2022-08-31T06:59:37.055Z,89.34
2022-08-31T07:00:37.016Z,89.54
2022-08-31T07:01:37.063Z,89.03
2022-08-31T07:02:37.089Z,89.03
2022-08-31T07:03:37.003Z,89.74
2022-08-31T07:04:37.018Z,88.73
2022-08-31T07:05:36.984Z,88.83
2022-08-31T07:06:36.977Z,88.43
2022-08-31T07:07:36.979Z,89.74
2022-08-31T07:08:36.956Z,89.54
2022-08-31T07:09:36.968Z,89.03
2022-08-31T07:10:36.947Z,89.39
2022-08-31T07:11:39.829Z,89.19
2022-08-31T07:12:37.925Z,88.53
2022-08-31T07:13:36.927Z,88.79
2022-08-31T07:14:36.965Z,88.93
2022-08-31T07:15:36.906Z,88.93
2022-08-31T07:16:37.032Z,89.34
2022-08-31T07:17:36.891Z,88.99
2022-08-31T07:18:36.888Z,89.13
2022-08-31T07:19:36.915Z,89.34
2022-08-31T07:20:36.864Z,88.53
2022-08-31T07:21:36.854Z,88.32
2022-08-31T07:22:36.853Z,89.03
2022-08-31T07:23:36.845Z,88.63
2022-08-31T07:24:36.861Z,89.29
2022-08-31T07:25:36.822Z,88.48
2022-08-31T07:26:36.851Z,87.98
2022-08-31T07:27:36.811Z,88.18
2022-08-31T07:28:36.804Z,88.04
2022-08-31T07:29:36.829Z,87.94
2022-08-31T07:30:36.855Z,88.59
2022-08-31T07:31:36.785Z,88.18
2022-08-31T07:32:36.777Z,88.48
2022-08-31T07:33:36.767Z,88.34
2022-08-31T07:34:36.785Z,87.38
2022-08-31T07:35:36.745Z,87.43
2022-08-31T07:36:36.742Z,87.94
2022-08-31T07:37:36.734Z,87.34
2022-08-31T07:38:36.883Z,87.94
2022-08-31T07:39:36.719Z,87.13
2022-08-31T07:40:36.786Z,87.43
2022-08-31T07:41:36.707Z,87.13
2022-08-31T07:42:36.687Z,87.13
2022-08-31T07:43:36.682Z,86.83
2022-08-31T07:44:36.685Z,87.43
2022-08-31T07:45:39.119Z,87.03
2022-08-31T07:46:37.703Z,87.09
2022-08-31T07:47:36.651Z,87.29
2022-08-31T07:48:36.643Z,86.53
2022-08-31T07:49:36.630Z,86.89
2022-08-31T07:50:36.660Z,86.43
2022-08-31T07:51:36.614Z,86.83
2022-08-31T07:52:36.605Z,86.69
2022-08-31T07:53:36.602Z,87.23
2022-08-31T07:54:36.590Z,86.69
2022-08-31T07:55:36.610Z,86.58
2022-08-31T07:56:36.581Z,86.58
2022-08-31T07:57:36.576Z,85.68
2022-08-31T07:58:36.565Z,86.49
2022-08-31T07:59:36.554Z,86.49
2022-08-31T08:00:36.572Z,86.75
2022-08-31T08:01:36.588Z,85.24
2022-08-31T08:02:36.705Z,85.34
2022-08-31T08:03:36.521Z,85.84
2022-08-31T08:04:36.513Z,85.44
2022-08-31T08:05:36.540Z,84.53
2022-08-31T08:06:36.498Z,85.14
2022-08-31T08:07:36.498Z,85.34
2022-08-31T08:08:36.485Z,85.03
2022-08-31T08:09:36.471Z,85.10
2022-08-31T08:10:36.495Z,85.00
2022-08-31T08:11:36.455Z,83.89
2022-08-31T08:12:36.450Z,85.03
2022-08-31T08:13:36.443Z,84.80
2022-08-31T08:14:36.441Z,84.33
2022-08-31T08:15:36.456Z,84.74
2022-08-31T08:16:36.481Z,84.23
2022-08-31T08:17:36.413Z,85.20
2022-08-31T08:18:36.402Z,84.03
2022-08-31T08:19:36.395Z,84.09
2022-08-31T08:20:38.292Z,84.80
2022-08-31T08:21:36.380Z,83.99
2022-08-31T08:22:51.319Z,83.99
2022-08-31T08:23:38.374Z,83.75
2022-08-31T08:24:36.361Z,84.15
2022-08-31T08:25:36.387Z,82.74
2022-08-31T08:26:36.342Z,83.75
2022-08-31T08:27:36.342Z,83.14
2022-08-31T08:28:39.732Z,83.51
2022-08-31T08:29:37.313Z,82.70
2022-08-31T08:30:36.338Z,82.36
2022-08-31T08:31:36.344Z,81.56
2022-08-31T08:32:36.302Z,81.65
2022-08-31T08:33:36.288Z,80.85
2022-08-31T08:34:36.279Z,80.61
2022-08-31T08:35:36.302Z,79.71
2022-08-31T08:36:36.260Z,81.41
2022-08-31T08:37:57.126Z,80.07
2022-08-31T08:38:38.246Z,79.47
2022-08-31T08:39:36.247Z,79.83
2022-08-31T08:40:36.317Z,78.29
2022-08-31T08:41:36.229Z,78.29
2022-08-31T08:42:36.218Z,78.83
2022-08-31T08:43:36.206Z,78.63
2022-08-31T08:44:36.205Z,78.42
2022-08-31T08:45:36.254Z,78.09
2022-08-31T08:46:36.262Z,77.65
2022-08-31T08:47:38.793Z,77.65
2022-08-31T08:48:36.167Z,77.95
2022-08-31T08:49:36.161Z,76.81
2022-08-31T08:50:36.153Z,77.61
2022-08-31T08:51:36.175Z,76.01
2022-08-31T08:52:36.137Z,77.15
2022-08-31T08:53:36.130Z,77.35
2022-08-31T08:54:36.116Z,77.28
2022-08-31T08:55:36.141Z,77.69
2022-08-31T08:56:36.120Z,77.79
2022-08-31T08:57:36.098Z,78.49
2022-08-31T08:58:36.087Z,77.85
2022-08-31T08:59:36.108Z,77.35
2022-08-31T09:00:36.098Z,77.55
2022-08-31T09:01:36.135Z,76.85
2022-08-31T09:02:36.130Z,77.15
2022-08-31T09:03:36.048Z,77.19
2022-08-31T09:04:36.045Z,77.85
2022-08-31T09:05:36.069Z,75.84
2022-08-31T09:06:46.009Z,78.45
2022-08-31T09:07:37.017Z,77.19
2022-08-31T09:08:36.014Z,77.39
2022-08-31T09:09:36.007Z,78.42
2022-08-31T09:10:36.033Z,78.36
2022-08-31T09:11:35.991Z,77.83
2022-08-31T09:12:35.985Z,78.69
2022-08-31T09:13:35.969Z,77.69
2022-08-31T09:14:35.964Z,77.65
2022-08-31T09:15:36.039Z,77.75
2022-08-31T09:16:36.031Z,77.19
2022-08-31T09:17:35.941Z,77.65
2022-08-31T09:18:35.935Z,77.35
2022-08-31T09:19:35.929Z,76.89
2022-08-31T09:20:35.954Z,77.39
2022-08-31T09:21:35.909Z,77.09
2022-08-31T09:22:35.902Z,77.55
2022-08-31T09:23:35.921Z,76.65
2022-08-31T09:24:35.890Z,77.55
2022-08-31T09:25:35.875Z,77.51
2022-08-31T09:26:35.900Z,76.51
2022-08-31T09:27:35.860Z,76.75
2022-08-31T09:28:35.853Z,77.05
2022-08-31T09:29:35.841Z,75.71
2022-08-31T09:30:35.832Z,75.87
2022-08-31T09:31:35.961Z,75.57
2022-08-31T09:32:35.820Z,75.47
2022-08-31T09:33:35.812Z,75.77
2022-08-31T09:34:35.804Z,74.57
2022-08-31T09:35:35.793Z,75.27
2022-08-31T09:36:35.809Z,76.81
2022-08-31T09:37:35.775Z,74.60
2022-08-31T09:38:35.779Z,76.34
2022-08-31T09:39:37.212Z,76.61
2022-08-31T09:40:35.783Z,75.71
2022-08-31T09:41:35.775Z,76.67
2022-08-31T09:42:35.740Z,75.51
2022-08-31T09:43:35.733Z,74.77
2022-08-31T09:44:35.739Z,73.93
2022-08-31T09:45:38.903Z,74.77
2022-08-31T09:46:36.734Z,74.67
2022-08-31T09:47:35.706Z,74.93
2022-08-31T09:48:35.702Z,75.07
2022-08-31T09:49:35.687Z,74.13
2022-08-31T09:50:35.760Z,73.19
2022-08-31T09:51:35.698Z,72.26
2022-08-31T09:52:35.669Z,71.96
2022-08-31T09:53:35.670Z,73.03
2022-08-31T09:54:35.656Z,73.43
2022-08-31T09:55:35.641Z,72.33
2022-08-31T09:56:35.659Z,73.16
2022-08-31T09:57:35.628Z,72.96
2022-08-31T09:58:35.621Z,73.16
2022-08-31T09:59:35.609Z,73.00
2022-08-31T10:00:35.599Z,73.43
2022-08-31T10:01:35.665Z,74.07
2022-08-31T10:02:35.590Z,74.73
2022-08-31T10:03:35.591Z,73.60
2022-08-31T10:04:35.614Z,73.60
2022-08-31T10:05:35.592Z,73.10
2022-08-31T10:06:35.577Z,73.30
2022-08-31T10:07:35.545Z,72.89
2022-08-31T10:08:35.527Z,73.16
2022-08-31T10:09:36.528Z,72.36
2022-08-31T10:10:35.538Z,73.16
2022-08-31T10:11:36.516Z,74.16
2022-08-31T10:12:35.505Z,73.33
2022-08-31T10:13:35.503Z,72.16
2022-08-31T10:14:35.489Z,73.33
2022-08-31T10:15:35.549Z,71.73
2022-08-31T10:16:35.505Z,71.96
2022-08-31T10:17:35.468Z,71.33
2022-08-31T10:18:35.457Z,71.62
2022-08-31T10:19:35.451Z,71.19
2022-08-31T10:20:35.473Z,71.46
2022-08-31T10:21:35.434Z,71.16
2022-08-31T10:22:35.421Z,72.16
2022-08-31T10:23:35.416Z,70.23
2022-08-31T10:24:35.423Z,71.22
2022-08-31T10:25:35.397Z,70.56
2022-08-31T10:26:35.421Z,71.56
2022-08-31T10:27:35.385Z,70.99
2022-08-31T10:28:35.380Z,70.89
2022-08-31T10:29:35.372Z,70.99
2022-08-31T10:30:35.360Z,71.69
2022-08-31T10:31:35.476Z,70.89
2022-08-31T10:32:35.346Z,70.06
2022-08-31T10:33:35.339Z,70.96
2022-08-31T10:34:35.329Z,70.19
2022-08-31T10:35:35.362Z,70.19
2022-08-31T10:36:35.344Z,70.59
2022-08-31T10:37:35.307Z,70.29
2022-08-31T10:38:35.299Z,71.46
2022-08-31T10:39:35.291Z,70.39
2022-08-31T10:40:35.394Z,71.06
2022-08-31T10:41:35.299Z,71.23
2022-08-31T10:42:35.254Z,71.56
2022-08-31T10:43:36.260Z,71.96
2022-08-31T10:44:35.249Z,72.13
2022-08-31T10:45:35.247Z,71.33
2022-08-31T10:46:35.334Z,72.16
2022-08-31T10:47:35.228Z,72.36
2022-08-31T10:48:35.220Z,72.19
2022-08-31T10:49:35.212Z,72.00
2022-08-31T10:50:35.229Z,72.30
2022-08-31T10:51:35.198Z,73.50
2022-08-31T10:52:35.187Z,73.03
2022-08-31T10:53:39.861Z,72.53
2022-08-31T10:54:36.176Z,73.27
2022-08-31T10:55:35.193Z,73.23
2022-08-31T10:56:35.152Z,73.13
2022-08-31T10:57:36.156Z,73.23
2022-08-31T10:58:35.143Z,73.39
2022-08-31T10:59:35.137Z,72.30
2022-08-31T11:00:35.158Z,73.39
2022-08-31T11:01:35.177Z,72.33
2022-08-31T11:02:35.113Z,73.23
2022-08-31T11:03:35.181Z,73.39
2022-08-31T11:04:35.171Z,72.63
2022-08-31T11:05:35.125Z,73.36
2022-08-31T11:06:35.083Z,73.47
2022-08-31T11:07:35.075Z,73.33
2022-08-31T11:08:35.066Z,73.73
2022-08-31T11:09:35.066Z,73.23
2022-08-31T11:10:35.087Z,73.19
2022-08-31T11:11:35.047Z,71.80
2022-08-31T11:12:35.043Z,71.89
2022-08-31T11:13:35.028Z,72.09
2022-08-31T11:14:35.023Z,72.60
2022-08-31T11:15:35.073Z,71.83
2022-08-31T11:16:35.009Z,72.43
2022-08-31T11:17:35.005Z,72.36
2022-08-31T11:18:34.993Z,73.53
2022-08-31T11:19:34.982Z,73.23
2022-08-31T11:20:34.977Z,72.13
2022-08-31T11:21:34.994Z,73.19
2022-08-31T11:22:34.964Z,73.19
2022-08-31T11:23:34.953Z,72.00
2022-08-31T11:24:37.535Z,72.16
2022-08-31T11:25:35.961Z,71.39
2022-08-31T11:26:34.927Z,71.19
2022-08-31T11:27:34.920Z,72.23
2022-08-31T11:28:34.915Z,72.43
2022-08-31T11:29:34.910Z,73.33
2022-08-31T11:30:38.606Z,72.13
2022-08-31T11:31:36.029Z,73.53
2022-08-31T11:32:34.882Z,72.03
2022-08-31T11:33:34.878Z,72.69
2022-08-31T11:34:34.867Z,73.19
2022-08-31T11:35:34.859Z,71.19
2022-08-31T11:36:35.879Z,71.19
2022-08-31T11:37:34.848Z,70.69
2022-08-31T11:38:34.836Z,70.89
2022-08-31T11:39:34.832Z,70.89
2022-08-31T11:40:34.911Z,71.00
2022-08-31T11:41:34.814Z,71.66
2022-08-31T11:42:34.806Z,71.30
2022-08-31T11:43:34.803Z,71.69
2022-08-31T11:44:34.795Z,71.39
2022-08-31T11:45:34.819Z,71.89
2022-08-31T11:46:34.810Z,71.69
2022-08-31T11:47:34.785Z,71.73
2022-08-31T11:48:34.760Z,70.43
2022-08-31T11:49:34.750Z,70.56
2022-08-31T11:50:34.776Z,70.93
2022-08-31T11:51:40.091Z,70.06
2022-08-31T11:52:36.728Z,71.26
2022-08-31T11:53:34.726Z,71.86
2022-08-31T11:54:34.711Z,72.40
2022-08-31T11:55:34.733Z,72.16
2022-08-31T11:56:34.698Z,71.16
2022-08-31T11:57:37.757Z,71.36
2022-08-31T11:58:35.682Z,71.16
2022-08-31T11:59:34.673Z,71.77
2022-08-31T12:00:34.722Z,71.83
2022-08-31T12:01:34.684Z,71.39
2022-08-31T12:02:34.729Z,70.23
2022-08-31T12:03:34.642Z,71.23
2022-08-31T12:04:34.635Z,71.30
2022-08-31T12:05:34.673Z,71.09
2022-08-31T12:06:34.644Z,70.53
2022-08-31T12:07:34.624Z,70.09
2022-08-31T12:08:34.598Z,70.50
2022-08-31T12:09:34.594Z,70.29
2022-08-31T12:10:34.587Z,70.93
2022-08-31T12:11:34.603Z,71.43
2022-08-31T12:12:34.572Z,70.32
2022-08-31T12:13:34.563Z,71.12
2022-08-31T12:14:34.558Z,70.96
2022-08-31T12:15:34.582Z,71.26
2022-08-31T12:16:34.562Z,70.86
2022-08-31T12:17:34.537Z,71.26
2022-08-31T12:18:34.910Z,71.06
2022-08-31T12:19:34.517Z,71.26
2022-08-31T12:20:34.556Z,71.16
2022-08-31T12:21:34.503Z,71.39
2022-08-31T12:22:34.492Z,71.96
2022-08-31T12:23:34.642Z,71.70
2022-08-31T12:24:34.475Z,71.80
2022-08-31T12:25:34.499Z,72.09
2022-08-31T12:26:34.469Z,71.30
2022-08-31T12:27:34.454Z,71.77
2022-08-31T12:28:34.476Z,71.56
2022-08-31T12:29:34.460Z,70.96
2022-08-31T12:30:34.521Z,70.83
2022-08-31T12:31:34.451Z,70.66
2022-08-31T12:32:34.414Z,71.36
2022-08-31T12:33:34.410Z,71.36
2022-08-31T12:34:34.399Z,71.77
2022-08-31T12:35:34.417Z,71.16
2022-08-31T12:36:34.385Z,71.56
2022-08-31T12:37:34.374Z,71.36
2022-08-31T12:38:34.371Z,71.90
2022-08-31T12:39:34.360Z,72.30
2022-08-31T12:40:34.546Z,71.39
2022-08-31T12:41:34.342Z,71.59
2022-08-31T12:42:34.339Z,71.39
2022-08-31T12:43:34.328Z,71.30
2022-08-31T12:44:34.320Z,71.90
2022-08-31T12:45:34.343Z,71.26
2022-08-31T12:46:34.402Z,70.86
2022-08-31T12:47:34.297Z,71.26
2022-08-31T12:48:34.300Z,70.56
2022-08-31T12:49:34.285Z,72.13
2022-08-31T12:50:34.403Z,70.39
2022-08-31T12:51:34.265Z,71.00
2022-08-31T12:52:34.256Z,71.09